Terminal Aerodrome Forecast
Issued by NWS

Home | Current Version | Previous Version | Text Only | Print | Product List | Glossary On
Versions: 1 2 3 4 5 6 7 8 9 10 11 12
309
FTUS42 TJSJ 240541
TAFJPS
TAF
TJPS 240541Z 2406/2506 05005KT P6SM SKC
     FM241300 18010G18KT P6SM FEW030 SCT060
     FM242300 05005KT P6SM SKC
      AMD NOT SKED 2412/2503=

USA.gov is the U.S. government's official web portal to all federal, state and local government web resources and services.